Terminal Aerodrome Forecast
Issued by NWS

Home | Current Version | Previous Version | Graphics & Text | Print | Product List | Glossary On
Versions: 1 2 3 4 5 6 7 8 9 10 11 12 13
000
FTUS43 KMPX 240659 AAA
TAFRWF
TAF AMD
KRWF 240659Z 2407/2506 29008KT P6SM SCT016 BKN060
     FM240900 30009KT P6SM FEW060 SCT250
     FM241700 31012G18KT P6SM FEW250
     FM250100 30004KT P6SM SKC=

USA.gov is the U.S. government's official web portal to all federal, state and local government web resources and services.